Lorton, Virginia
Current Conditions -  °F | °C
As of 10:58 AM on Tuesday 21 Oct 2014 (Local Time) from KDAA Reporting Station
Broken Clouds Broken Clouds  
Wind Chill: 62°   Ceiling: 10000
Heat Index: 62°   Visibility: 10mi
Dew Point: 52°   Wind: 1mph
Humidity: 69%   Direction: NA
Pressure: 29.88"   Gusts: NA
Location:  38.7°N, 77.21°W
Report Text: KDAA 211458Z AUTO VRB01KT 10SM BKN100 17/11 A2988 RMK AO2 SLP121 T01680111 58001
Loading
Personal Weather Stations






























Interactive Weather Map
Tropical Storm Tracking
New forecast layout! Learn more

10-Day Weather Forecast

Advertisements
Track Severe Weather on mobile